Taylor, Nebraska
Current Conditions -  °F | °C
As of 7:53 AM on Monday 20 Oct 2014 (Local Time) from KODX Reporting Station
Clear Clear  
Wind Chill: 32°   Ceiling: Unl
Heat Index: 37°   Visibility: NA
Dew Point: 35°   Wind: 7mph
Humidity: 93%   Direction: 330°NNW
Pressure: 30.09"   Gusts: NA
Location:  41.77°N, 99.38°W
Report Text: KODX 201253Z AUTO 33006KT CLR 03/02 A3009 RMK AO2 SLP200 T00280017
Loading
Personal Weather Stations






























Interactive Weather Map
Tropical Storm Tracking
New forecast layout! Learn more

10-Day Weather Forecast

Advertisements
Track Severe Weather on mobile